LOWL/LNZ METAR and TAF weather

Enter ICAO airport designator
Station Type Date Time Source
LOWL METAR 2022/01/23 11:50 UTC NOAA

LOWL 231150Z 29009KT 9999 FEW009 BKN011 03/02 Q1033 TEMPO SCT010 BKN040


Station Type Date Time Source
LOWL Decoded METAR 2022/01/23 11:50 UTC NOAA

Linz / Hoersching-Flughafen, Austria (LOWL) 48-14N 014-11E 313M
Jan 23, 2022 - 06:50 AM EST / 2022.01.23 1150 UTC
Wind: from the WNW (290 degrees) at 10 MPH (9 KT):0
Visibility: greater than 7 mile(s):0
Sky conditions: mostly cloudy
Temperature: 37 F (3 C)
Dew Point: 35 F (2 C)
Relative Humidity: 93%
Pressure (altimeter): 30.50 in. Hg (1033 hPa)
ob: LOWL 231150Z 29009KT 9999 FEW009 BKN011 03/02 Q1033 TEMPO SCT010 BKN040
cycle: 12

Station Type Date Time Source
LOWL TAF 2022/01/23 12:21 UTC NOAA

TAF LOWL 231115Z 2312/2412 27010KT 9999 BKN012 TX04/2412Z TN02/2406Z
TEMPO 2312/2320 SCT012 BKN040
TEMPO 2320/2409 BKN006
BECMG 2403/2406 27004KT

Example: see airport list